Aeroporto :
LOGIN :

Iscrizione | Disclaimer

   EN    FR    IT 

 










Sommario :    VFR   VFR Marginale   IFR   IFR Intensivo   IFR Molto Intensivo
Visibilità : 
Base nubi : 
>= 8 km
>= 3000ft
5 / 8 km
1000 / 3000 ft
1500m / 5 km
500 / 1000 ft
800 / 1500m
200 / 500 ft
< 800m
< 200 ft
Simboli :   Temporali  Nebbia  Neve Forte  Precipitazioni Forti  Vento > 20 kt
SIGMETs :   Varie  Temporali  Ghiacco  Turbolenza  Onda orograficha  Ceneri Vulcaniche






- Altitudine del aeroporto : 1682 ft
- Codice IATA : VIT


LEVT - Vitoria Gasteiz

ULTIMO METAR :
  • 282100Z 03004KT CAVOK 15/12 Q1021

METARs OBSOLETI :
  • 282030Z 02005KT CAVOK 18/12 Q1021
  • 282000Z 02005KT CAVOK 20/12 Q1020
  • 281930Z 06006KT CAVOK 19/13 Q1020
  • 281900Z 08005KT 9999 FEW040 23/12 Q1020
  • 281830Z 07004KT 9999 FEW040TCU 25/13 Q1020

TAF TAF LEVT
Valido dal 28 a 18 ore il 29 a 18 ore UTC


281700Z 2818/2918 VRB05KT CAVOK TX28/2913Z TN11/2905Z
TEMPO 2818/2820 03010KT
TEMPO 2912/2918 03010KT



MetMap, La meteo Aeronautica in un colpo d'occhio ! - Copyright ORBIFLY Dicembre 2007 - Disclaimer

ORBIFLY MET'MAP TEAM :

Programmazione e sviluppo : Alexandra Zaïnal
Concezione : Baudouin d'Aumeries
Aiuto per la programmazione : Marc-Olivier Méhu
Supporto tecnico e logistico : Manuel Goepfert
Aiuto per la traduzione : Arnaldo La Scala

Contatto : metmap@orbifly.com




FONTI E CREDITI :

   NOAA